sensor_id;sensor_type;location;lat;lon;timestamp;temperature;humidity
7502;DHT22;3792;47.740;7.606;2023-06-04T00:02:21;17.60;99.90
7502;DHT22;3792;47.740;7.606;2023-06-04T00:04:48;17.40;99.90
7502;DHT22;3792;47.740;7.606;2023-06-04T00:07:15;17.40;99.90
7502;DHT22;3792;47.740;7.606;2023-06-04T00:09:43;17.40;99.90
7502;DHT22;3792;47.740;7.606;2023-06-04T00:12:12;17.40;99.90
7502;DHT22;3792;47.740;7.606;2023-06-04T00:14:39;17.40;99.90
7502;DHT22;3792;47.740;7.606;2023-06-04T00:17:08;17.40;99.90
7502;DHT22;3792;47.740;7.606;2023-06-04T00:19:37;17.40;99.90
7502;DHT22;3792;47.740;7.606;2023-06-04T00:22:05;17.40;99.90
7502;DHT22;3792;47.740;7.606;2023-06-04T00:24:34;17.30;99.90
7502;DHT22;3792;47.740;7.606;2023-06-04T00:27:03;17.30;99.90
7502;DHT22;3792;47.740;7.606;2023-06-04T00:29:30;17.20;99.90
7502;DHT22;3792;47.740;7.606;2023-06-04T00:31:57;17.20;99.90
7502;DHT22;3792;47.740;7.606;2023-06-04T00:34:24;17.10;99.90
7502;DHT22;3792;47.740;7.606;2023-06-04T00:36:51;17.10;99.90
7502;DHT22;3792;47.740;7.606;2023-06-04T00:39:18;17.10;99.90
7502;DHT22;3792;47.740;7.606;2023-06-04T00:41:45;17.10;99.90
7502;DHT22;3792;47.740;7.606;2023-06-04T00:44:14;17.10;99.90
7502;DHT22;3792;47.740;7.606;2023-06-04T00:46:41;17.10;99.90
7502;DHT22;3792;47.740;7.606;2023-06-04T00:49:11;17.00;99.90
7502;DHT22;3792;47.740;7.606;2023-06-04T00:51:39;17.00;99.90
7502;DHT22;3792;47.740;7.606;2023-06-04T00:54:07;17.00;99.90
7502;DHT22;3792;47.740;7.606;2023-06-04T00:56:36;16.90;99.90
7502;DHT22;3792;47.740;7.606;2023-06-04T00:59:05;16.90;99.90
7502;DHT22;3792;47.740;7.606;2023-06-04T01:01:42;16.90;99.90
7502;DHT22;3792;47.740;7.606;2023-06-04T01:04:18;16.90;99.90
7502;DHT22;3792;47.740;7.606;2023-06-04T01:06:50;16.80;99.90
7502;DHT22;3792;47.740;7.606;2023-06-04T01:09:18;16.70;99.90
7502;DHT22;3792;47.740;7.606;2023-06-04T01:11:45;16.60;99.90
7502;DHT22;3792;47.740;7.606;2023-06-04T01:14:12;16.50;99.90
7502;DHT22;3792;47.740;7.606;2023-06-04T01:16:47;16.40;99.90
7502;DHT22;3792;47.740;7.606;2023-06-04T01:19:37;16.40;99.90
7502;DHT22;3792;47.740;7.606;2023-06-04T01:22:17;16.40;99.90
7502;DHT22;3792;47.740;7.606;2023-06-04T01:24:53;16.30;99.90
7502;DHT22;3792;47.740;7.606;2023-06-04T01:27:22;16.30;99.90
7502;DHT22;3792;47.740;7.606;2023-06-04T01:29:50;16.40;99.90
7502;DHT22;3792;47.740;7.606;2023-06-04T01:32:18;16.40;99.90
7502;DHT22;3792;47.740;7.606;2023-06-04T01:34:46;16.40;99.90
7502;DHT22;3792;47.740;7.606;2023-06-04T01:37:13;16.40;99.90
7502;DHT22;3792;47.740;7.606;2023-06-04T01:39:41;16.30;99.90
7502;DHT22;3792;47.740;7.606;2023-06-04T01:42:09;16.20;99.90
7502;DHT22;3792;47.740;7.606;2023-06-04T01:44:37;16.20;99.90
7502;DHT22;3792;47.740;7.606;2023-06-04T01:47:04;16.10;99.90
7502;DHT22;3792;47.740;7.606;2023-06-04T01:49:33;15.90;99.90
7502;DHT22;3792;47.740;7.606;2023-06-04T01:52:00;15.90;99.90
7502;DHT22;3792;47.740;7.606;2023-06-04T01:54:27;15.90;99.90
7502;DHT22;3792;47.740;7.606;2023-06-04T01:56:55;15.90;99.90
7502;DHT22;3792;47.740;7.606;2023-06-04T01:59:22;15.90;99.90
7502;DHT22;3792;47.740;7.606;2023-06-04T02:01:49;16.00;99.90
7502;DHT22;3792;47.740;7.606;2023-06-04T02:04:16;15.90;99.90
7502;DHT22;3792;47.740;7.606;2023-06-04T02:06:45;16.00;99.90
7502;DHT22;3792;47.740;7.606;2023-06-04T02:09:12;15.90;99.90
7502;DHT22;3792;47.740;7.606;2023-06-04T02:11:39;15.80;99.90
7502;DHT22;3792;47.740;7.606;2023-06-04T02:14:06;15.80;99.90
7502;DHT22;3792;47.740;7.606;2023-06-04T02:16:33;15.80;99.90
7502;DHT22;3792;47.740;7.606;2023-06-04T02:19:00;15.60;99.90
7502;DHT22;3792;47.740;7.606;2023-06-04T02:21:28;15.60;99.90
7502;DHT22;3792;47.740;7.606;2023-06-04T02:23:57;15.70;99.90
7502;DHT22;3792;47.740;7.606;2023-06-04T02:26:24;15.80;99.90
7502;DHT22;3792;47.740;7.606;2023-06-04T02:28:51;15.80;99.90
7502;DHT22;3792;47.740;7.606;2023-06-04T02:31:18;15.70;99.90
7502;DHT22;3792;47.740;7.606;2023-06-04T02:33:45;15.70;99.90
7502;DHT22;3792;47.740;7.606;2023-06-04T02:36:12;15.60;99.90
7502;DHT22;3792;47.740;7.606;2023-06-04T02:38:39;15.60;99.90
7502;DHT22;3792;47.740;7.606;2023-06-04T02:41:07;15.50;99.90
7502;DHT22;3792;47.740;7.606;2023-06-04T02:43:34;15.50;99.90
7502;DHT22;3792;47.740;7.606;2023-06-04T02:46:01;15.40;99.90
7502;DHT22;3792;47.740;7.606;2023-06-04T02:48:28;15.30;99.90
7502;DHT22;3792;47.740;7.606;2023-06-04T02:50:55;15.20;99.90
7502;DHT22;3792;47.740;7.606;2023-06-04T02:53:22;15.20;99.90
7502;DHT22;3792;47.740;7.606;2023-06-04T02:55:50;15.20;99.90
7502;DHT22;3792;47.740;7.606;2023-06-04T02:58:19;15.10;99.90
7502;DHT22;3792;47.740;7.606;2023-06-04T03:00:47;15.20;99.90
7502;DHT22;3792;47.740;7.606;2023-06-04T03:03:14;15.30;99.90
7502;DHT22;3792;47.740;7.606;2023-06-04T03:05:41;15.30;99.90
7502;DHT22;3792;47.740;7.606;2023-06-04T03:08:08;15.30;99.90
7502;DHT22;3792;47.740;7.606;2023-06-04T03:10:36;15.30;99.90
7502;DHT22;3792;47.740;7.606;2023-06-04T03:13:03;15.30;99.90
7502;DHT22;3792;47.740;7.606;2023-06-04T03:15:32;15.20;99.90
7502;DHT22;3792;47.740;7.606;2023-06-04T03:17:59;15.10;99.90
7502;DHT22;3792;47.740;7.606;2023-06-04T03:20:26;14.90;99.90
7502;DHT22;3792;47.740;7.606;2023-06-04T03:22:53;14.90;99.90
7502;DHT22;3792;47.740;7.606;2023-06-04T03:25:20;14.90;99.90
7502;DHT22;3792;47.740;7.606;2023-06-04T03:27:47;15.00;99.90
7502;DHT22;3792;47.740;7.606;2023-06-04T03:30:14;14.90;99.90
7502;DHT22;3792;47.740;7.606;2023-06-04T03:32:42;14.90;99.90
7502;DHT22;3792;47.740;7.606;2023-06-04T03:35:11;14.80;99.90
7502;DHT22;3792;47.740;7.606;2023-06-04T03:37:38;14.80;99.90
7502;DHT22;3792;47.740;7.606;2023-06-04T03:40:06;14.80;99.90
7502;DHT22;3792;47.740;7.606;2023-06-04T03:42:33;14.70;99.90
7502;DHT22;3792;47.740;7.606;2023-06-04T03:45:00;14.80;99.90
7502;DHT22;3792;47.740;7.606;2023-06-04T03:47:27;14.80;99.90
7502;DHT22;3792;47.740;7.606;2023-06-04T03:49:56;14.90;99.90
7502;DHT22;3792;47.740;7.606;2023-06-04T03:52:23;15.00;99.90
7502;DHT22;3792;47.740;7.606;2023-06-04T03:54:50;15.00;99.90
7502;DHT22;3792;47.740;7.606;2023-06-04T03:57:17;15.00;99.90
7502;DHT22;3792;47.740;7.606;2023-06-04T03:59:44;14.90;99.90
7502;DHT22;3792;47.740;7.606;2023-06-04T04:02:11;15.00;99.90
7502;DHT22;3792;47.740;7.606;2023-06-04T04:04:38;15.00;99.90
7502;DHT22;3792;47.740;7.606;2023-06-04T04:07:06;15.10;99.90
7502;DHT22;3792;47.740;7.606;2023-06-04T04:09:34;15.10;99.90
7502;DHT22;3792;47.740;7.606;2023-06-04T04:12:01;15.10;99.90
7502;DHT22;3792;47.740;7.606;2023-06-04T04:14:28;15.10;99.90
7502;DHT22;3792;47.740;7.606;2023-06-04T04:16:56;15.10;99.90
7502;DHT22;3792;47.740;7.606;2023-06-04T04:19:23;15.20;99.90
7502;DHT22;3792;47.740;7.606;2023-06-04T04:21:50;15.10;99.90
7502;DHT22;3792;47.740;7.606;2023-06-04T04:24:24;15.10;99.90
7502;DHT22;3792;47.740;7.606;2023-06-04T04:26:51;15.20;99.90
7502;DHT22;3792;47.740;7.606;2023-06-04T04:29:19;15.30;99.90
7502;DHT22;3792;47.740;7.606;2023-06-04T04:31:48;15.10;99.90
7502;DHT22;3792;47.740;7.606;2023-06-04T04:34:15;15.10;99.90
7502;DHT22;3792;47.740;7.606;2023-06-04T04:36:42;15.10;99.90
7502;DHT22;3792;47.740;7.606;2023-06-04T04:39:09;15.00;99.90
7502;DHT22;3792;47.740;7.606;2023-06-04T04:41:38;14.90;99.90
7502;DHT22;3792;47.740;7.606;2023-06-04T04:44:06;15.10;99.90
7502;DHT22;3792;47.740;7.606;2023-06-04T04:46:33;15.20;99.90
7502;DHT22;3792;47.740;7.606;2023-06-04T04:49:00;15.30;99.90
7502;DHT22;3792;47.740;7.606;2023-06-04T04:51:27;15.40;99.90
7502;DHT22;3792;47.740;7.606;2023-06-04T04:53:54;15.50;99.90
7502;DHT22;3792;47.740;7.606;2023-06-04T04:56:21;15.60;99.90
7502;DHT22;3792;47.740;7.606;2023-06-04T04:58:50;15.70;99.90
7502;DHT22;3792;47.740;7.606;2023-06-04T05:01:17;15.60;99.90
7502;DHT22;3792;47.740;7.606;2023-06-04T05:03:44;15.60;99.90
7502;DHT22;3792;47.740;7.606;2023-06-04T05:06:11;15.80;99.90
7502;DHT22;3792;47.740;7.606;2023-06-04T05:08:38;15.90;99.90
7502;DHT22;3792;47.740;7.606;2023-06-04T05:11:05;15.90;99.90
7502;DHT22;3792;47.740;7.606;2023-06-04T05:13:33;16.00;99.90
7502;DHT22;3792;47.740;7.606;2023-06-04T05:16:01;16.00;99.90
7502;DHT22;3792;47.740;7.606;2023-06-04T05:18:32;16.10;99.90
7502;DHT22;3792;47.740;7.606;2023-06-04T05:20:59;16.30;99.90
7502;DHT22;3792;47.740;7.606;2023-06-04T05:23:28;16.30;99.90
7502;DHT22;3792;47.740;7.606;2023-06-04T05:25:57;16.40;99.90
7502;DHT22;3792;47.740;7.606;2023-06-04T05:28:25;16.50;99.90
7502;DHT22;3792;47.740;7.606;2023-06-04T05:30:52;16.40;99.90
7502;DHT22;3792;47.740;7.606;2023-06-04T05:33:26;16.40;99.90
7502;DHT22;3792;47.740;7.606;2023-06-04T05:35:54;16.40;99.90
7502;DHT22;3792;47.740;7.606;2023-06-04T05:38:23;16.60;99.90
7502;DHT22;3792;47.740;7.606;2023-06-04T05:40:51;16.80;99.90
7502;DHT22;3792;47.740;7.606;2023-06-04T05:43:19;17.00;99.90
7502;DHT22;3792;47.740;7.606;2023-06-04T05:45:46;17.20;99.90
7502;DHT22;3792;47.740;7.606;2023-06-04T05:48:13;17.40;99.90
7502;DHT22;3792;47.740;7.606;2023-06-04T05:50:41;17.50;99.90
7502;DHT22;3792;47.740;7.606;2023-06-04T05:53:08;17.70;99.90
7502;DHT22;3792;47.740;7.606;2023-06-04T05:55:36;17.80;99.90
7502;DHT22;3792;47.740;7.606;2023-06-04T05:58:03;17.80;99.90
7502;DHT22;3792;47.740;7.606;2023-06-04T06:00:30;17.80;99.90
7502;DHT22;3792;47.740;7.606;2023-06-04T06:02:57;17.90;99.90
7502;DHT22;3792;47.740;7.606;2023-06-04T06:05:24;17.90;99.90
7502;DHT22;3792;47.740;7.606;2023-06-04T06:07:52;18.10;99.90
7502;DHT22;3792;47.740;7.606;2023-06-04T06:10:21;18.20;99.90
7502;DHT22;3792;47.740;7.606;2023-06-04T06:12:48;18.40;99.90
7502;DHT22;3792;47.740;7.606;2023-06-04T06:15:15;18.50;99.90
7502;DHT22;3792;47.740;7.606;2023-06-04T06:17:42;18.40;99.90
7502;DHT22;3792;47.740;7.606;2023-06-04T06:20:10;18.30;99.90
7502;DHT22;3792;47.740;7.606;2023-06-04T06:22:37;18.30;99.90
7502;DHT22;3792;47.740;7.606;2023-06-04T06:25:07;18.30;99.90
7502;DHT22;3792;47.740;7.606;2023-06-04T06:27:34;18.30;99.90
7502;DHT22;3792;47.740;7.606;2023-06-04T06:30:01;18.40;99.90
7502;DHT22;3792;47.740;7.606;2023-06-04T06:32:29;18.40;99.90
7502;DHT22;3792;47.740;7.606;2023-06-04T06:34:56;18.40;99.90
7502;DHT22;3792;47.740;7.606;2023-06-04T06:37:23;18.50;99.90
7502;DHT22;3792;47.740;7.606;2023-06-04T06:39:50;18.50;99.90
7502;DHT22;3792;47.740;7.606;2023-06-04T06:42:19;18.50;99.90
7502;DHT22;3792;47.740;7.606;2023-06-04T06:44:46;18.50;99.90
7502;DHT22;3792;47.740;7.606;2023-06-04T06:47:13;18.50;99.90
7502;DHT22;3792;47.740;7.606;2023-06-04T06:49:40;18.40;99.90
7502;DHT22;3792;47.740;7.606;2023-06-04T06:52:07;18.40;99.90
7502;DHT22;3792;47.740;7.606;2023-06-04T06:54:34;18.40;99.90
7502;DHT22;3792;47.740;7.606;2023-06-04T06:57:01;18.40;99.90
7502;DHT22;3792;47.740;7.606;2023-06-04T06:59:30;18.50;99.90
7502;DHT22;3792;47.740;7.606;2023-06-04T07:01:57;18.60;99.90
7502;DHT22;3792;47.740;7.606;2023-06-04T07:04:24;18.70;99.90
7502;DHT22;3792;47.740;7.606;2023-06-04T07:06:51;18.80;99.90
7502;DHT22;3792;47.740;7.606;2023-06-04T07:09:18;18.90;99.90
7502;DHT22;3792;47.740;7.606;2023-06-04T07:11:45;19.10;99.90
7502;DHT22;3792;47.740;7.606;2023-06-04T07:14:12;19.30;99.90
7502;DHT22;3792;47.740;7.606;2023-06-04T07:16:41;19.30;99.90
7502;DHT22;3792;47.740;7.606;2023-06-04T07:19:08;19.30;99.90
7502;DHT22;3792;47.740;7.606;2023-06-04T07:21:35;19.30;99.90
7502;DHT22;3792;47.740;7.606;2023-06-04T07:24:03;19.30;99.90
7502;DHT22;3792;47.740;7.606;2023-06-04T07:26:31;19.30;99.90
7502;DHT22;3792;47.740;7.606;2023-06-04T07:28:58;19.20;99.90
7502;DHT22;3792;47.740;7.606;2023-06-04T07:31:25;19.10;99.90
7502;DHT22;3792;47.740;7.606;2023-06-04T07:33:54;19.20;99.90
7502;DHT22;3792;47.740;7.606;2023-06-04T07:36:21;19.20;99.90
7502;DHT22;3792;47.740;7.606;2023-06-04T07:38:48;19.10;99.90
7502;DHT22;3792;47.740;7.606;2023-06-04T07:41:15;19.20;99.90
7502;DHT22;3792;47.740;7.606;2023-06-04T07:43:43;19.30;99.90
7502;DHT22;3792;47.740;7.606;2023-06-04T07:46:10;19.50;99.90
7502;DHT22;3792;47.740;7.606;2023-06-04T07:48:38;19.60;99.90
7502;DHT22;3792;47.740;7.606;2023-06-04T07:51:07;19.70;99.90
7502;DHT22;3792;47.740;7.606;2023-06-04T07:53:34;19.80;99.90
7502;DHT22;3792;47.740;7.606;2023-06-04T07:56:01;19.80;99.90
7502;DHT22;3792;47.740;7.606;2023-06-04T07:58:28;19.90;99.90
7502;DHT22;3792;47.740;7.606;2023-06-04T08:00:55;19.80;99.90
7502;DHT22;3792;47.740;7.606;2023-06-04T08:03:23;20.00;99.90
7502;DHT22;3792;47.740;7.606;2023-06-04T08:05:50;19.90;99.90
7502;DHT22;3792;47.740;7.606;2023-06-04T08:08:18;19.80;99.90
7502;DHT22;3792;47.740;7.606;2023-06-04T08:10:45;19.80;99.90
7502;DHT22;3792;47.740;7.606;2023-06-04T08:13:12;19.70;99.90
7502;DHT22;3792;47.740;7.606;2023-06-04T08:15:39;19.50;99.90
7502;DHT22;3792;47.740;7.606;2023-06-04T08:18:08;19.70;99.90
7502;DHT22;3792;47.740;7.606;2023-06-04T08:20:35;19.80;99.90
7502;DHT22;3792;47.740;7.606;2023-06-04T08:23:02;19.70;99.90
7502;DHT22;3792;47.740;7.606;2023-06-04T08:25:30;19.70;99.90
7502;DHT22;3792;47.740;7.606;2023-06-04T08:27:58;19.70;99.90
7502;DHT22;3792;47.740;7.606;2023-06-04T08:30:25;19.70;99.90
7502;DHT22;3792;47.740;7.606;2023-06-04T08:32:53;19.60;99.90
7502;DHT22;3792;47.740;7.606;2023-06-04T08:35:20;19.80;99.90
7502;DHT22;3792;47.740;7.606;2023-06-04T08:37:47;20.00;99.90
7502;DHT22;3792;47.740;7.606;2023-06-04T08:40:14;20.30;99.90
7502;DHT22;3792;47.740;7.606;2023-06-04T08:42:43;20.70;99.90
7502;DHT22;3792;47.740;7.606;2023-06-04T08:45:12;21.00;99.90
7502;DHT22;3792;47.740;7.606;2023-06-04T08:47:43;21.30;99.90
7502;DHT22;3792;47.740;7.606;2023-06-04T08:50:12;21.40;99.90
7502;DHT22;3792;47.740;7.606;2023-06-04T08:52:40;21.40;99.90
7502;DHT22;3792;47.740;7.606;2023-06-04T08:55:09;21.30;99.90
7502;DHT22;3792;47.740;7.606;2023-06-04T08:57:39;21.30;99.90
7502;DHT22;3792;47.740;7.606;2023-06-04T09:00:09;21.20;99.90
7502;DHT22;3792;47.740;7.606;2023-06-04T09:02:36;21.10;99.90
7502;DHT22;3792;47.740;7.606;2023-06-04T09:05:05;21.10;99.90
7502;DHT22;3792;47.740;7.606;2023-06-04T09:07:36;21.00;99.90
7502;DHT22;3792;47.740;7.606;2023-06-04T09:10:05;20.90;99.90
7502;DHT22;3792;47.740;7.606;2023-06-04T09:12:36;21.10;99.90
7502;DHT22;3792;47.740;7.606;2023-06-04T09:15:08;21.50;99.90
7502;DHT22;3792;47.740;7.606;2023-06-04T09:17:36;21.90;99.90
7502;DHT22;3792;47.740;7.606;2023-06-04T09:20:04;22.10;99.90
7502;DHT22;3792;47.740;7.606;2023-06-04T09:22:34;22.30;99.90
7502;DHT22;3792;47.740;7.606;2023-06-04T09:25:05;22.50;99.90
7502;DHT22;3792;47.740;7.606;2023-06-04T09:27:39;22.60;99.90
7502;DHT22;3792;47.740;7.606;2023-06-04T09:30:09;22.40;99.90
7502;DHT22;3792;47.740;7.606;2023-06-04T09:32:36;22.50;99.90
7502;DHT22;3792;47.740;7.606;2023-06-04T09:35:10;22.60;99.90
7502;DHT22;3792;47.740;7.606;2023-06-04T09:37:38;22.60;99.90
7502;DHT22;3792;47.740;7.606;2023-06-04T09:40:07;22.50;99.90
7502;DHT22;3792;47.740;7.606;2023-06-04T09:42:46;22.60;99.90
7502;DHT22;3792;47.740;7.606;2023-06-04T09:45:26;22.80;99.90
7502;DHT22;3792;47.740;7.606;2023-06-04T09:47:53;22.90;99.80
7502;DHT22;3792;47.740;7.606;2023-06-04T09:50:25;22.90;99.90
7502;DHT22;3792;47.740;7.606;2023-06-04T09:52:53;23.20;99.90
7502;DHT22;3792;47.740;7.606;2023-06-04T09:55:20;23.50;99.70
7502;DHT22;3792;47.740;7.606;2023-06-04T09:57:48;23.40;99.90
7502;DHT22;3792;47.740;7.606;2023-06-04T10:00:19;23.70;99.50
7502;DHT22;3792;47.740;7.606;2023-06-04T10:02:49;23.80;98.80
7502;DHT22;3792;47.740;7.606;2023-06-04T10:05:17;23.90;99.10
7502;DHT22;3792;47.740;7.606;2023-06-04T10:07:55;23.90;98.60
7502;DHT22;3792;47.740;7.606;2023-06-04T10:10:25;24.00;98.50
7502;DHT22;3792;47.740;7.606;2023-06-04T10:13:00;24.20;98.80
7502;DHT22;3792;47.740;7.606;2023-06-04T10:15:29;24.30;98.70
7502;DHT22;3792;47.740;7.606;2023-06-04T10:17:58;24.50;97.80
7502;DHT22;3792;47.740;7.606;2023-06-04T10:20:25;24.70;97.40
7502;DHT22;3792;47.740;7.606;2023-06-04T10:22:53;24.80;98.50
7502;DHT22;3792;47.740;7.606;2023-06-04T10:25:21;24.70;96.50
7502;DHT22;3792;47.740;7.606;2023-06-04T10:27:51;24.60;96.90
7502;DHT22;3792;47.740;7.606;2023-06-04T10:30:19;24.70;97.00
7502;DHT22;3792;47.740;7.606;2023-06-04T10:32:48;25.10;97.20
7502;DHT22;3792;47.740;7.606;2023-06-04T10:35:15;24.90;97.10
7502;DHT22;3792;47.740;7.606;2023-06-04T10:37:42;24.80;96.20
7502;DHT22;3792;47.740;7.606;2023-06-04T10:40:10;24.80;97.00
7502;DHT22;3792;47.740;7.606;2023-06-04T10:42:42;24.60;96.80
7502;DHT22;3792;47.740;7.606;2023-06-04T10:45:10;24.70;98.30
7502;DHT22;3792;47.740;7.606;2023-06-04T10:47:37;25.00;97.60
7502;DHT22;3792;47.740;7.606;2023-06-04T10:50:12;25.30;96.90
7502;DHT22;3792;47.740;7.606;2023-06-04T10:52:51;25.50;97.80
7502;DHT22;3792;47.740;7.606;2023-06-04T10:55:18;25.80;96.10
7502;DHT22;3792;47.740;7.606;2023-06-04T10:57:52;25.70;96.10
7502;DHT22;3792;47.740;7.606;2023-06-04T11:00:19;25.40;96.70
7502;DHT22;3792;47.740;7.606;2023-06-04T11:02:54;25.70;97.70
7502;DHT22;3792;47.740;7.606;2023-06-04T11:05:34;25.60;96.20
7502;DHT22;3792;47.740;7.606;2023-06-04T11:08:04;25.60;96.80
7502;DHT22;3792;47.740;7.606;2023-06-04T11:10:33;25.70;97.40
7502;DHT22;3792;47.740;7.606;2023-06-04T11:13:01;25.60;97.10
7502;DHT22;3792;47.740;7.606;2023-06-04T11:15:38;25.90;95.90
7502;DHT22;3792;47.740;7.606;2023-06-04T11:18:05;25.70;95.90
7502;DHT22;3792;47.740;7.606;2023-06-04T11:20:33;26.10;95.70
7502;DHT22;3792;47.740;7.606;2023-06-04T11:23:01;26.40;96.90
7502;DHT22;3792;47.740;7.606;2023-06-04T11:25:29;26.40;95.80
7502;DHT22;3792;47.740;7.606;2023-06-04T11:28:00;26.10;95.80
7502;DHT22;3792;47.740;7.606;2023-06-04T11:30:28;26.00;96.30
7502;DHT22;3792;47.740;7.606;2023-06-04T11:33:02;25.60;95.80
7502;DHT22;3792;47.740;7.606;2023-06-04T11:35:30;25.70;96.30
7502;DHT22;3792;47.740;7.606;2023-06-04T11:37:59;26.20;97.10
7502;DHT22;3792;47.740;7.606;2023-06-04T11:40:26;26.40;95.80
7502;DHT22;3792;47.740;7.606;2023-06-04T11:42:54;26.80;95.90
7502;DHT22;3792;47.740;7.606;2023-06-04T11:45:22;26.80;94.80
7502;DHT22;3792;47.740;7.606;2023-06-04T11:47:53;27.10;95.50
7502;DHT22;3792;47.740;7.606;2023-06-04T11:50:21;26.80;94.60
7502;DHT22;3792;47.740;7.606;2023-06-04T11:52:49;26.90;94.80
7502;DHT22;3792;47.740;7.606;2023-06-04T11:55:17;27.10;95.40
7502;DHT22;3792;47.740;7.606;2023-06-04T11:57:46;27.00;94.40
7502;DHT22;3792;47.740;7.606;2023-06-04T12:00:14;26.60;95.00
7502;DHT22;3792;47.740;7.606;2023-06-04T12:02:49;26.80;94.80
7502;DHT22;3792;47.740;7.606;2023-06-04T12:05:17;26.60;94.50
7502;DHT22;3792;47.740;7.606;2023-06-04T12:07:46;26.60;94.40
7502;DHT22;3792;47.740;7.606;2023-06-04T12:10:17;26.70;93.80
7502;DHT22;3792;47.740;7.606;2023-06-04T12:12:44;26.90;93.30
7502;DHT22;3792;47.740;7.606;2023-06-04T12:15:12;27.00;93.70
7502;DHT22;3792;47.740;7.606;2023-06-04T12:17:51;26.90;93.40
7502;DHT22;3792;47.740;7.606;2023-06-04T12:20:19;26.80;93.60
7502;DHT22;3792;47.740;7.606;2023-06-04T12:22:46;26.60;93.60
7502;DHT22;3792;47.740;7.606;2023-06-04T12:25:25;26.70;93.60
7502;DHT22;3792;47.740;7.606;2023-06-04T12:27:53;27.10;93.70
7502;DHT22;3792;47.740;7.606;2023-06-04T12:30:20;27.30;92.50
7502;DHT22;3792;47.740;7.606;2023-06-04T12:32:48;27.00;92.40
7502;DHT22;3792;47.740;7.606;2023-06-04T12:35:17;27.10;92.60
7502;DHT22;3792;47.740;7.606;2023-06-04T12:37:44;27.10;91.70
7502;DHT22;3792;47.740;7.606;2023-06-04T12:40:11;26.80;92.30
7502;DHT22;3792;47.740;7.606;2023-06-04T12:42:40;26.70;93.20
7502;DHT22;3792;47.740;7.606;2023-06-04T12:45:09;27.20;92.20
7502;DHT22;3792;47.740;7.606;2023-06-04T12:47:38;27.40;92.20
7502;DHT22;3792;47.740;7.606;2023-06-04T12:50:05;27.60;91.60
7502;DHT22;3792;47.740;7.606;2023-06-04T12:52:32;27.20;91.70
7502;DHT22;3792;47.740;7.606;2023-06-04T12:55:00;27.20;91.30
7502;DHT22;3792;47.740;7.606;2023-06-04T12:57:27;27.20;91.30
7502;DHT22;3792;47.740;7.606;2023-06-04T12:59:55;27.10;91.80
7502;DHT22;3792;47.740;7.606;2023-06-04T13:02:23;27.30;91.80
7502;DHT22;3792;47.740;7.606;2023-06-04T13:04:50;27.30;90.60
7502;DHT22;3792;47.740;7.606;2023-06-04T13:07:20;27.40;90.20
7502;DHT22;3792;47.740;7.606;2023-06-04T13:09:47;27.60;90.50
7502;DHT22;3792;47.740;7.606;2023-06-04T13:12:14;27.90;89.60
7502;DHT22;3792;47.740;7.606;2023-06-04T13:14:41;27.90;89.60
7502;DHT22;3792;47.740;7.606;2023-06-04T13:17:10;28.00;89.20
7502;DHT22;3792;47.740;7.606;2023-06-04T13:19:37;28.10;89.10
7502;DHT22;3792;47.740;7.606;2023-06-04T13:22:04;28.30;88.90
7502;DHT22;3792;47.740;7.606;2023-06-04T13:24:31;28.10;88.10
7502;DHT22;3792;47.740;7.606;2023-06-04T13:26:58;28.10;90.30
7502;DHT22;3792;47.740;7.606;2023-06-04T13:29:25;27.90;88.70
7502;DHT22;3792;47.740;7.606;2023-06-04T13:31:52;27.70;89.40
7502;DHT22;3792;47.740;7.606;2023-06-04T13:34:21;27.80;90.60
7502;DHT22;3792;47.740;7.606;2023-06-04T13:36:48;28.00;90.60
7502;DHT22;3792;47.740;7.606;2023-06-04T13:39:15;28.30;90.50
7502;DHT22;3792;47.740;7.606;2023-06-04T13:41:42;28.50;89.40
7502;DHT22;3792;47.740;7.606;2023-06-04T13:44:09;28.40;88.70
7502;DHT22;3792;47.740;7.606;2023-06-04T13:46:36;28.30;88.00
7502;DHT22;3792;47.740;7.606;2023-06-04T13:49:03;28.10;89.80
7502;DHT22;3792;47.740;7.606;2023-06-04T13:51:32;28.10;89.80
7502;DHT22;3792;47.740;7.606;2023-06-04T13:53:59;28.10;88.40
7502;DHT22;3792;47.740;7.606;2023-06-04T13:56:26;28.00;88.80
7502;DHT22;3792;47.740;7.606;2023-06-04T13:58:53;28.20;88.50
7502;DHT22;3792;47.740;7.606;2023-06-04T14:01:20;28.30;87.40
7502;DHT22;3792;47.740;7.606;2023-06-04T14:03:47;28.50;88.40
7502;DHT22;3792;47.740;7.606;2023-06-04T14:06:14;28.20;87.60
7502;DHT22;3792;47.740;7.606;2023-06-04T14:08:43;28.20;88.10
7502;DHT22;3792;47.740;7.606;2023-06-04T14:11:10;28.40;87.00
7502;DHT22;3792;47.740;7.606;2023-06-04T14:13:41;28.30;86.60
7502;DHT22;3792;47.740;7.606;2023-06-04T14:16:14;28.10;87.50
7502;DHT22;3792;47.740;7.606;2023-06-04T14:18:42;27.70;88.00
7502;DHT22;3792;47.740;7.606;2023-06-04T14:21:10;27.80;88.70
7502;DHT22;3792;47.740;7.606;2023-06-04T14:23:39;27.90;88.10
7502;DHT22;3792;47.740;7.606;2023-06-04T14:26:07;28.20;87.90
7502;DHT22;3792;47.740;7.606;2023-06-04T14:28:34;28.10;88.70
7502;DHT22;3792;47.740;7.606;2023-06-04T14:31:01;28.30;87.50
7502;DHT22;3792;47.740;7.606;2023-06-04T14:33:28;28.50;88.50
7502;DHT22;3792;47.740;7.606;2023-06-04T14:35:55;28.80;89.50
7502;DHT22;3792;47.740;7.606;2023-06-04T14:38:22;28.90;88.40
7502;DHT22;3792;47.740;7.606;2023-06-04T14:40:49;29.00;88.10
7502;DHT22;3792;47.740;7.606;2023-06-04T14:43:18;28.70;89.20
7502;DHT22;3792;47.740;7.606;2023-06-04T14:45:45;28.70;90.40
7502;DHT22;3792;47.740;7.606;2023-06-04T14:48:12;28.70;89.00
7502;DHT22;3792;47.740;7.606;2023-06-04T14:50:39;28.90;90.20
7502;DHT22;3792;47.740;7.606;2023-06-04T14:53:06;28.80;89.20
7502;DHT22;3792;47.740;7.606;2023-06-04T14:55:34;28.50;89.50
7502;DHT22;3792;47.740;7.606;2023-06-04T14:58:01;28.40;89.60
7502;DHT22;3792;47.740;7.606;2023-06-04T15:00:31;28.60;88.60
7502;DHT22;3792;47.740;7.606;2023-06-04T15:02:58;28.80;89.90
7502;DHT22;3792;47.740;7.606;2023-06-04T15:05:25;28.90;89.10
7502;DHT22;3792;47.740;7.606;2023-06-04T15:07:52;28.80;89.20
7502;DHT22;3792;47.740;7.606;2023-06-04T15:10:19;28.90;89.20
7502;DHT22;3792;47.740;7.606;2023-06-04T15:12:46;28.90;88.40
7502;DHT22;3792;47.740;7.606;2023-06-04T15:15:14;28.80;88.70
7502;DHT22;3792;47.740;7.606;2023-06-04T15:17:42;28.50;88.30
7502;DHT22;3792;47.740;7.606;2023-06-04T15:20:09;28.10;88.10
7502;DHT22;3792;47.740;7.606;2023-06-04T15:22:37;27.80;89.60
7502;DHT22;3792;47.740;7.606;2023-06-04T15:25:04;27.40;90.40
7502;DHT22;3792;47.740;7.606;2023-06-04T15:27:31;27.00;90.60
7502;DHT22;3792;47.740;7.606;2023-06-04T15:29:59;26.50;91.10
7502;DHT22;3792;47.740;7.606;2023-06-04T15:32:26;26.30;88.60
7502;DHT22;3792;47.740;7.606;2023-06-04T15:34:54;25.90;86.80
7502;DHT22;3792;47.740;7.606;2023-06-04T15:37:23;25.60;87.10
7502;DHT22;3792;47.740;7.606;2023-06-04T15:39:50;25.40;88.80
7502;DHT22;3792;47.740;7.606;2023-06-04T15:42:17;25.00;87.70
7502;DHT22;3792;47.740;7.606;2023-06-04T15:44:44;24.40;88.00
7502;DHT22;3792;47.740;7.606;2023-06-04T15:47:11;24.00;90.10
7502;DHT22;3792;47.740;7.606;2023-06-04T15:49:38;23.80;91.20
7502;DHT22;3792;47.740;7.606;2023-06-04T15:52:07;23.50;92.30
7502;DHT22;3792;47.740;7.606;2023-06-04T15:54:34;23.30;92.60
7502;DHT22;3792;47.740;7.606;2023-06-04T15:57:01;23.10;93.20
7502;DHT22;3792;47.740;7.606;2023-06-04T15:59:28;23.10;95.30
7502;DHT22;3792;47.740;7.606;2023-06-04T16:01:55;23.00;98.80
7502;DHT22;3792;47.740;7.606;2023-06-04T16:04:22;22.70;99.90
7502;DHT22;3792;47.740;7.606;2023-06-04T16:06:49;22.20;99.90
7502;DHT22;3792;47.740;7.606;2023-06-04T16:09:18;21.60;99.90